createdAt,value
2017-05-06T00:01:05.721Z,12.64
2017-05-06T00:02:07.109Z,12.72
2017-05-06T00:03:28.579Z,12.67
2017-05-06T00:04:29.957Z,12.62
2017-05-06T00:05:51.448Z,12.65
2017-05-06T00:06:52.838Z,12.68
2017-05-06T00:08:14.297Z,12.60
2017-05-06T00:09:15.690Z,12.56
2017-05-06T00:10:37.150Z,12.52
2017-05-06T00:11:38.529Z,12.52
2017-05-06T00:13:00.025Z,12.56
2017-05-06T00:14:01.412Z,12.64
2017-05-06T00:15:22.867Z,12.68
2017-05-06T00:16:24.254Z,12.68
2017-05-06T00:17:45.715Z,12.72
2017-05-06T00:18:47.096Z,12.67
2017-05-06T00:20:08.589Z,12.75
2017-05-06T00:21:09.977Z,12.64
2017-05-06T00:22:31.443Z,12.72
2017-05-06T00:23:32.827Z,12.70
2017-05-06T00:24:54.297Z,12.74
2017-05-06T00:25:55.682Z,12.75
2017-05-06T00:27:17.177Z,12.83
2017-05-06T00:28:18.562Z,12.74
2017-05-06T00:29:40.028Z,12.82
2017-05-06T00:30:41.413Z,12.72
2017-05-06T00:32:02.881Z,12.62
2017-05-06T00:33:04.267Z,12.64
2017-05-06T00:34:25.769Z,12.72
2017-05-06T00:35:27.158Z,12.72
2017-05-06T00:36:48.620Z,12.77
2017-05-06T00:37:50.005Z,12.75
2017-05-06T00:39:11.470Z,12.77
2017-05-06T00:40:12.859Z,12.82
2017-05-06T00:41:34.353Z,12.77
2017-05-06T00:42:35.737Z,12.75
2017-05-06T00:43:57.200Z,12.86
2017-05-06T00:44:58.580Z,12.78
2017-05-06T00:46:20.051Z,12.87
2017-05-06T00:47:21.431Z,12.74
2017-05-06T00:48:42.930Z,12.77
2017-05-06T00:49:44.307Z,12.74
2017-05-06T00:51:05.767Z,12.82
2017-05-06T00:52:07.225Z,12.75
2017-05-06T00:53:28.646Z,12.82
2017-05-06T00:54:30.037Z,12.78
2017-05-06T00:55:51.541Z,12.83
2017-05-06T00:56:52.936Z,12.77
2017-05-06T00:58:14.388Z,12.74
2017-05-06T00:59:15.777Z,12.83
2017-05-06T01:00:37.238Z,12.86
2017-05-06T01:01:38.621Z,12.72
2017-05-06T01:03:00.125Z,12.83
2017-05-06T01:04:01.513Z,12.83
2017-05-06T01:05:22.971Z,12.79
2017-05-06T01:06:24.360Z,12.75
2017-05-06T01:07:45.820Z,12.78
2017-05-06T01:08:47.202Z,12.87
2017-05-06T01:10:08.697Z,12.92
2017-05-06T01:11:10.083Z,12.86
2017-05-06T01:12:31.550Z,12.89
2017-05-06T01:13:32.935Z,12.90
2017-05-06T01:14:54.394Z,12.85
2017-05-06T01:15:55.778Z,12.85
2017-05-06T01:17:17.289Z,12.90
2017-05-06T01:18:18.675Z,12.87
2017-05-06T01:19:40.136Z,12.87
2017-05-06T01:20:41.518Z,12.95
2017-05-06T01:22:02.983Z,12.87
2017-05-06T01:23:04.365Z,12.89
2017-05-06T01:24:28.404Z,12.86
2017-05-06T02:54:52.748Z,12.28
2017-05-06T02:55:54.126Z,12.17
2017-05-06T02:57:15.585Z,12.23
2017-05-06T02:58:16.965Z,12.31
2017-05-06T02:59:38.424Z,12.37
2017-05-06T03:00:39.803Z,12.24
2017-05-06T03:02:01.301Z,12.32
2017-05-06T03:03:02.679Z,12.34
2017-05-06T03:04:24.136Z,12.34
2017-05-06T03:05:25.516Z,12.31
2017-05-06T03:06:46.979Z,12.42
2017-05-06T03:07:48.360Z,12.39
2017-05-06T03:09:09.843Z,12.46
2017-05-06T03:10:11.223Z,12.38
2017-05-06T03:11:32.683Z,12.45
2017-05-06T03:12:34.065Z,12.45
2017-05-06T03:13:55.555Z,12.53
2017-05-06T03:14:56.909Z,12.53
2017-05-06T03:16:18.398Z,12.57
2017-05-06T03:17:19.777Z,12.54
2017-05-06T03:18:41.237Z,12.59
2017-05-06T03:19:42.619Z,12.67
2017-05-06T03:21:04.085Z,12.60
2017-05-06T03:22:05.462Z,12.65
2017-05-06T03:23:26.954Z,12.68
2017-05-06T03:24:28.333Z,12.67
2017-05-06T03:25:49.794Z,12.67
2017-05-06T03:26:51.176Z,12.68
2017-05-06T03:28:12.638Z,12.71
2017-05-06T03:29:14.021Z,12.72
2017-05-06T03:30:35.509Z,12.72
2017-05-06T03:31:36.890Z,12.72
2017-05-06T03:32:58.350Z,12.71
2017-05-06T03:33:59.732Z,12.77
2017-05-06T03:35:21.194Z,12.75
2017-05-06T03:36:22.577Z,12.79
2017-05-06T03:37:44.078Z,12.75
2017-05-06T03:38:45.461Z,12.77
2017-05-06T03:40:06.925Z,12.74
2017-05-06T03:41:08.308Z,12.87
2017-05-06T03:42:29.772Z,12.85
2017-05-06T03:43:31.156Z,12.87
2017-05-06T03:44:52.651Z,12.93
2017-05-06T03:45:54.034Z,12.96
2017-05-06T03:47:15.496Z,12.93
2017-05-06T03:48:16.879Z,12.95
2017-05-06T03:49:38.371Z,12.90
2017-05-06T03:50:39.728Z,12.96
2017-05-06T03:52:01.222Z,13.00
2017-05-06T03:53:02.604Z,13.01
2017-05-06T03:54:24.070Z,13.01
2017-05-06T03:55:25.453Z,13.03
2017-05-06T03:56:46.920Z,13.05
2017-05-06T03:57:48.305Z,13.03
2017-05-06T03:59:09.798Z,13.07
2017-05-06T04:00:11.185Z,13.10
2017-05-06T04:01:32.649Z,13.05
2017-05-06T04:02:34.032Z,13.12
2017-05-06T04:03:55.495Z,13.04
2017-05-06T04:04:56.881Z,13.04
2017-05-06T04:06:18.378Z,13.01
2017-05-06T04:07:19.759Z,13.19
2017-05-06T04:08:41.223Z,13.10
2017-05-06T04:09:42.608Z,13.20
2017-05-06T04:11:04.072Z,13.15
2017-05-06T04:12:05.458Z,13.15
2017-05-06T04:13:26.953Z,13.20
2017-05-06T04:14:28.337Z,13.15
2017-05-06T04:15:49.800Z,13.10
2017-05-06T04:16:51.185Z,13.15
2017-05-06T04:18:12.648Z,13.07
2017-05-06T04:19:14.035Z,13.22
2017-05-06T04:20:35.532Z,13.15
2017-05-06T04:21:36.911Z,13.17
2017-05-06T04:22:58.378Z,13.15
2017-05-06T04:23:59.761Z,13.17
2017-05-06T04:25:21.230Z,13.19
2017-05-06T04:26:22.615Z,13.14
2017-05-06T04:27:44.118Z,13.14
2017-05-06T04:28:45.506Z,13.29
2017-05-06T04:30:06.969Z,13.22
2017-05-06T04:31:08.354Z,13.23
2017-05-06T04:32:29.819Z,13.26
2017-05-06T04:33:31.206Z,13.30
2017-05-06T04:34:52.700Z,13.22
2017-05-06T04:35:54.083Z,13.28
2017-05-06T04:37:15.552Z,13.38
2017-05-06T04:38:16.934Z,13.42
2017-05-06T04:39:38.401Z,13.32
2017-05-06T04:40:39.786Z,13.29
2017-05-06T04:42:01.275Z,13.33
2017-05-06T04:43:02.657Z,13.41
2017-05-06T04:44:24.123Z,13.42
2017-05-06T04:45:25.510Z,13.39
2017-05-06T04:46:46.984Z,13.52
2017-05-06T04:47:48.363Z,13.59
2017-05-06T04:49:09.857Z,13.60
2017-05-06T04:50:11.241Z,13.66
2017-05-06T04:51:32.708Z,13.70
2017-05-06T04:52:34.094Z,13.73
2017-05-06T04:53:55.562Z,13.79
2017-05-06T04:54:56.947Z,13.88
2017-05-06T04:56:18.439Z,13.85
2017-05-06T04:57:19.825Z,13.82
2017-05-06T04:58:41.287Z,13.84
2017-05-06T04:59:42.673Z,13.82
2017-05-06T05:01:04.140Z,13.73
2017-05-06T05:02:05.525Z,13.79
2017-05-06T05:03:27.022Z,13.81
2017-05-06T05:04:28.404Z,13.81
2017-05-06T05:05:49.872Z,13.77
2017-05-06T05:06:51.258Z,13.85
2017-05-06T05:08:12.723Z,13.84
2017-05-06T05:09:14.111Z,13.81
2017-05-06T05:10:35.604Z,13.92
2017-05-06T05:11:36.990Z,13.92
2017-05-06T05:12:58.453Z,14.06
2017-05-06T05:13:59.840Z,13.95
2017-05-06T05:15:21.304Z,13.99
2017-05-06T05:16:22.692Z,14.02
2017-05-06T05:17:44.187Z,14.17
2017-05-06T05:18:45.576Z,14.12
2017-05-06T05:20:07.046Z,14.10
2017-05-06T05:21:08.426Z,14.03
2017-05-06T05:22:29.894Z,14.07
2017-05-06T05:23:31.280Z,14.17
2017-05-06T05:24:52.776Z,14.09
2017-05-06T05:25:54.161Z,14.07
2017-05-06T05:27:15.626Z,14.04
2017-05-06T05:28:17.015Z,14.15
2017-05-06T05:29:38.478Z,14.20
2017-05-06T05:30:39.865Z,14.21
2017-05-06T05:32:01.363Z,14.22
2017-05-06T05:33:02.749Z,14.22
2017-05-06T05:34:24.212Z,14.35
2017-05-06T05:35:25.599Z,14.35
2017-05-06T05:36:47.066Z,14.25
2017-05-06T05:37:48.453Z,14.35
2017-05-06T05:39:09.961Z,14.39
2017-05-06T05:40:11.347Z,14.40
2017-05-06T05:41:32.812Z,14.42
2017-05-06T05:42:34.199Z,14.29
2017-05-06T05:43:55.665Z,14.32
2017-05-06T05:44:57.056Z,14.35
2017-05-06T05:46:18.548Z,14.33
2017-05-06T05:47:19.934Z,14.32
2017-05-06T05:48:41.401Z,14.24
2017-05-06T05:49:42.788Z,14.21
2017-05-06T05:51:04.252Z,14.22
2017-05-06T05:52:05.640Z,14.20
2017-05-06T05:53:27.137Z,14.32
2017-05-06T05:54:28.521Z,14.39
2017-05-06T05:55:49.985Z,14.46
2017-05-06T05:56:51.372Z,14.46
2017-05-06T05:58:12.839Z,14.57
2017-05-06T05:59:14.223Z,14.47
2017-05-06T06:00:35.718Z,14.55
2017-05-06T06:01:37.104Z,14.58
2017-05-06T06:02:58.566Z,14.62
2017-05-06T06:03:59.954Z,14.64
2017-05-06T06:05:21.419Z,14.69
2017-05-06T06:06:22.807Z,14.58
2017-05-06T06:07:44.301Z,14.64
2017-05-06T06:08:45.686Z,14.62
2017-05-06T06:10:07.153Z,14.68
2017-05-06T06:11:08.541Z,14.61
2017-05-06T06:12:30.011Z,14.72
2017-05-06T06:13:31.397Z,14.77
2017-05-06T06:14:52.889Z,14.83
2017-05-06T06:15:54.278Z,14.94
2017-05-06T06:17:15.741Z,14.99
2017-05-06T06:18:17.133Z,15.07
2017-05-06T06:19:38.598Z,15.20
2017-05-06T06:20:40.072Z,15.38
2017-05-06T06:22:01.570Z,15.38
2017-05-06T06:23:02.957Z,15.47
2017-05-06T06:24:24.427Z,15.54
2017-05-06T06:25:25.828Z,15.47
2017-05-06T06:26:47.291Z,15.64
2017-05-06T06:27:48.678Z,15.64
2017-05-06T06:29:10.174Z,15.56
2017-05-06T06:30:11.562Z,15.68
2017-05-06T06:31:33.029Z,15.67
2017-05-06T06:32:34.417Z,15.78
2017-05-06T06:33:55.883Z,15.78
2017-05-06T06:34:57.275Z,15.74
2017-05-06T06:36:18.768Z,15.72
2017-05-06T06:37:20.153Z,15.74
2017-05-06T06:38:41.618Z,15.65
2017-05-06T06:39:43.006Z,15.72
2017-05-06T06:41:04.483Z,15.75
2017-05-06T06:42:05.866Z,15.80
2017-05-06T06:43:27.362Z,15.84
2017-05-06T06:44:28.747Z,15.94
2017-05-06T06:45:50.214Z,15.83
2017-05-06T06:46:51.601Z,15.90
2017-05-06T06:48:13.069Z,15.76
2017-05-06T06:49:14.458Z,15.84
2017-05-06T06:50:36.100Z,15.83
2017-05-06T06:51:37.487Z,15.94
2017-05-06T06:52:58.953Z,15.92
2017-05-06T06:54:00.342Z,15.90
2017-05-06T06:55:21.821Z,16.01
2017-05-06T06:56:23.213Z,16.01
2017-05-06T06:57:44.708Z,16.17
2017-05-06T06:58:46.096Z,16.28
2017-05-06T07:00:07.567Z,16.35
2017-05-06T07:01:08.952Z,16.43
2017-05-06T07:02:30.453Z,16.46
2017-05-06T07:03:31.843Z,16.43
2017-05-06T07:04:53.340Z,16.50
2017-05-06T07:05:54.726Z,16.45
2017-05-06T07:07:16.213Z,16.50
2017-05-06T07:08:17.599Z,16.52
2017-05-06T07:09:39.067Z,16.56
2017-05-06T07:10:40.578Z,16.60
2017-05-06T07:12:02.055Z,16.57
2017-05-06T07:13:03.440Z,16.57
2017-05-06T07:14:24.907Z,16.57
2017-05-06T07:15:26.296Z,16.57
2017-05-06T07:16:47.763Z,16.63
2017-05-06T07:17:49.153Z,16.66
2017-05-06T07:19:10.650Z,16.68
2017-05-06T07:20:12.036Z,16.64
2017-05-06T07:21:33.510Z,16.63
2017-05-06T07:22:34.895Z,16.64
2017-05-06T07:23:56.363Z,16.73
2017-05-06T07:24:57.751Z,16.83
2017-05-06T07:26:19.252Z,16.97
2017-05-06T07:27:20.642Z,17.21
2017-05-06T07:28:42.113Z,17.41
2017-05-06T07:29:43.518Z,17.62
2017-05-06T07:31:04.991Z,17.93
2017-05-06T07:32:06.613Z,18.10
2017-05-06T07:33:28.110Z,18.41
2017-05-06T07:34:29.498Z,18.69
2017-05-06T07:35:50.968Z,19.04
2017-05-06T07:36:52.357Z,19.16
2017-05-06T07:38:13.828Z,19.47
2017-05-06T07:39:15.219Z,19.56
2017-05-06T07:40:36.716Z,19.54
2017-05-06T07:41:38.107Z,19.48
2017-05-06T07:42:59.578Z,19.54
2017-05-06T07:44:00.971Z,19.50
2017-05-06T07:45:22.438Z,19.50
2017-05-06T07:46:23.828Z,19.61
2017-05-06T07:47:45.341Z,19.80
2017-05-06T07:48:46.732Z,19.88
2017-05-06T07:50:08.201Z,19.95
2017-05-06T07:51:09.592Z,20.11
2017-05-06T07:52:31.065Z,20.20
2017-05-06T07:53:32.455Z,20.29
2017-05-06T07:54:53.953Z,20.50
2017-05-06T07:55:55.342Z,20.55
2017-05-06T07:57:16.812Z,20.89
2017-05-06T07:58:18.204Z,21.28
2017-05-06T07:59:39.677Z,21.69
2017-05-06T08:00:41.068Z,21.96
2017-05-06T08:02:02.568Z,22.73
2017-05-06T08:03:03.958Z,23.36
2017-05-06T08:04:25.429Z,23.78
2017-05-06T08:05:26.823Z,23.95
2017-05-06T08:06:48.296Z,24.09
2017-05-06T08:07:49.687Z,24.18
2017-05-06T08:09:11.187Z,24.46
2017-05-06T08:10:12.580Z,24.96
2017-05-06T08:11:34.054Z,24.93
2017-05-06T08:12:35.448Z,25.08
2017-05-06T08:13:56.922Z,25.03
2017-05-06T08:14:58.315Z,25.03
2017-05-06T08:16:19.815Z,24.77
2017-05-06T08:17:21.207Z,24.77
2017-05-06T08:18:42.725Z,24.80
2017-05-06T08:19:44.121Z,24.57
2017-05-06T08:21:05.598Z,24.60
2017-05-06T08:22:06.993Z,24.83
2017-05-06T08:23:28.505Z,25.21
2017-05-06T08:24:29.903Z,25.76
2017-05-06T08:25:51.376Z,27.02
2017-05-06T08:26:52.772Z,28.86
2017-05-06T08:28:14.250Z,31.25
2017-05-06T08:29:15.643Z,31.44
2017-05-06T08:30:37.156Z,32.96
2017-05-06T08:31:38.553Z,36.91
2017-05-06T08:33:00.033Z,36.16
2017-05-06T08:34:01.431Z,34.81
2017-05-06T08:35:22.913Z,34.88
2017-05-06T08:36:24.311Z,34.06
2017-05-06T08:37:45.828Z,33.21
2017-05-06T08:38:47.230Z,33.07
2017-05-06T08:40:08.711Z,33.69
2017-05-06T08:41:10.110Z,33.50
2017-05-06T08:42:31.593Z,33.76
2017-05-06T08:43:32.989Z,33.88
2017-05-06T08:44:54.494Z,34.81
2017-05-06T08:45:55.889Z,35.19
2017-05-06T08:47:17.375Z,35.90
2017-05-06T08:48:18.766Z,35.99
2017-05-06T08:49:40.247Z,35.34
2017-05-06T08:50:41.641Z,34.69
2017-05-06T08:52:03.158Z,34.25
2017-05-06T08:53:04.556Z,35.74
2017-05-06T08:54:26.036Z,36.23
2017-05-06T08:55:27.434Z,36.78
2017-05-06T08:56:48.913Z,38.57
2017-05-06T08:57:50.309Z,40.12
2017-05-06T08:59:11.895Z,41.60
2017-05-06T09:00:13.291Z,41.45
2017-05-06T09:01:34.773Z,41.55
2017-05-06T09:02:36.176Z,42.36
2017-05-06T09:03:57.675Z,40.20
2017-05-06T09:04:59.075Z,38.90
2017-05-06T09:06:20.591Z,37.20
2017-05-06T09:07:21.992Z,36.19
2017-05-06T09:08:43.476Z,35.66
2017-05-06T09:09:44.876Z,35.14
2017-05-06T09:11:06.358Z,34.24
2017-05-06T09:12:07.760Z,33.90
2017-05-06T09:13:29.274Z,33.63
2017-05-06T09:14:30.667Z,33.95
2017-05-06T09:15:52.157Z,34.12
2017-05-06T09:16:53.555Z,34.69
2017-05-06T09:18:15.036Z,34.96
2017-05-06T09:19:16.482Z,34.27
2017-05-06T09:20:37.995Z,34.21
2017-05-06T09:21:39.395Z,35.03
2017-05-06T09:23:00.878Z,39.18
2017-05-06T09:24:02.280Z,40.70
2017-05-06T09:25:23.762Z,41.44
2017-05-06T09:26:25.163Z,41.91
2017-05-06T09:27:46.669Z,40.42
2017-05-06T09:28:48.072Z,39.60
2017-05-06T09:30:09.557Z,38.83
2017-05-06T09:31:10.957Z,37.82
2017-05-06T09:32:32.442Z,36.85
2017-05-06T09:33:33.842Z,35.89
2017-05-06T09:34:55.371Z,35.09
2017-05-06T09:35:56.769Z,35.18
2017-05-06T09:37:18.254Z,36.65
2017-05-06T09:38:19.658Z,37.59
2017-05-06T09:39:41.140Z,39.50
2017-05-06T09:40:42.542Z,41.29
2017-05-06T09:42:04.050Z,45.16
2017-05-06T09:43:06.619Z,46.91
2017-05-06T09:44:28.108Z,49.91
2017-05-06T09:45:29.509Z,51.30
2017-05-06T09:46:50.993Z,51.62
2017-05-06T09:47:52.396Z,52.65
2017-05-06T09:49:13.913Z,54.22
2017-05-06T09:50:15.318Z,55.25
2017-05-06T09:51:36.811Z,56.23
2017-05-06T09:52:38.215Z,56.21
2017-05-06T09:53:59.709Z,56.36
2017-05-06T09:55:01.113Z,54.51
2017-05-06T09:56:22.633Z,53.10
2017-05-06T09:57:24.083Z,52.15
2017-05-06T09:58:45.578Z,53.28
2017-05-06T09:59:46.988Z,53.58
2017-05-06T10:01:08.482Z,50.82
2017-05-06T10:02:09.888Z,54.89
2017-05-06T10:03:31.411Z,57.05
2017-05-06T10:04:32.927Z,57.94
2017-05-06T10:05:54.427Z,58.70
2017-05-06T10:06:55.835Z,58.78
2017-05-06T10:08:17.332Z,59.06
2017-05-06T10:09:18.740Z,59.08
2017-05-06T10:10:40.268Z,58.14
2017-05-06T10:11:41.676Z,55.84
2017-05-06T10:13:03.183Z,55.63
2017-05-06T10:14:04.617Z,53.31
2017-05-06T11:35:03.240Z,19.22
2017-05-06T11:36:04.620Z,19.11
2017-05-06T11:37:26.080Z,19.23
2017-05-06T11:38:27.500Z,19.14
2017-05-06T11:39:48.964Z,19.07
2017-05-06T11:40:50.348Z,19.00
2017-05-06T11:42:11.851Z,19.07
2017-05-06T11:43:13.239Z,19.02
2017-05-06T11:44:34.700Z,19.06
2017-05-06T11:45:36.094Z,19.04
2017-05-06T11:46:57.554Z,18.94
2017-05-06T11:47:58.937Z,19.00
2017-05-06T11:49:20.429Z,18.87
2017-05-06T11:50:21.811Z,18.76
2017-05-06T11:51:43.276Z,18.82
2017-05-06T11:52:44.660Z,18.67
2017-05-06T11:54:06.123Z,18.58
2017-05-06T11:55:07.508Z,18.66
2017-05-06T11:56:29.013Z,18.70
2017-05-06T11:57:30.402Z,18.70
2017-05-06T11:58:51.864Z,18.65
2017-05-06T11:59:53.245Z,18.67
2017-05-06T12:01:14.709Z,18.63
2017-05-06T12:02:16.094Z,18.70
2017-05-06T12:03:37.588Z,18.65
2017-05-06T12:04:38.970Z,18.65
2017-05-06T12:06:00.465Z,18.63
2017-05-06T12:07:01.848Z,18.51
2017-05-06T12:08:23.310Z,18.52
2017-05-06T12:09:24.695Z,18.57
2017-05-06T12:10:46.207Z,18.48
2017-05-06T12:11:47.654Z,18.48
2017-05-06T12:13:09.269Z,18.52
2017-05-06T12:14:10.740Z,18.48
2017-05-06T12:15:32.384Z,18.52
2017-05-06T12:16:33.866Z,18.48
2017-05-06T12:17:55.357Z,18.57
2017-05-06T12:18:56.737Z,18.62
2017-05-06T12:20:18.289Z,18.69
2017-05-06T12:21:19.671Z,18.58
2017-05-06T12:22:41.139Z,18.58
2017-05-06T12:23:42.521Z,18.60
2017-05-06T12:25:04.015Z,18.58
2017-05-06T12:26:05.400Z,18.58
2017-05-06T12:27:26.863Z,18.62
2017-05-06T12:28:28.249Z,18.65
2017-05-06T12:29:49.715Z,18.51
2017-05-06T12:30:51.098Z,18.54
2017-05-06T12:32:12.594Z,18.52
2017-05-06T12:33:13.976Z,18.48
2017-05-06T12:34:35.436Z,18.55
2017-05-06T12:35:36.825Z,18.52
2017-05-06T12:36:58.333Z,18.52
2017-05-06T12:37:59.724Z,18.52
2017-05-06T12:39:21.249Z,18.45
2017-05-06T12:40:22.634Z,18.45
2017-05-06T12:41:44.096Z,18.44
2017-05-06T12:42:45.519Z,18.44
2017-05-06T12:44:07.476Z,18.39
2017-05-06T12:45:09.100Z,18.48
2017-05-06T12:46:30.590Z,18.48
2017-05-06T12:47:31.971Z,18.42
2017-05-06T12:48:53.434Z,18.47
2017-05-06T12:49:54.817Z,18.44
2017-05-06T12:51:16.284Z,18.57
2017-05-06T12:52:17.668Z,18.62
2017-05-06T12:53:39.164Z,18.62
2017-05-06T12:54:40.542Z,18.58
2017-05-06T12:56:02.001Z,18.58
2017-05-06T12:57:03.384Z,18.55
2017-05-06T12:58:24.848Z,18.55
2017-05-06T12:59:26.232Z,18.63
2017-05-06T13:00:47.734Z,18.58
2017-05-06T13:01:49.118Z,18.63
2017-05-06T13:03:10.582Z,18.67
2017-05-06T13:04:11.967Z,18.63
2017-05-06T13:05:33.431Z,18.63
2017-05-06T13:06:34.815Z,18.70
2017-05-06T13:07:56.306Z,18.70
2017-05-06T13:08:57.692Z,18.67
2017-05-06T13:10:19.152Z,18.76
2017-05-06T13:11:20.574Z,18.75
2017-05-06T13:12:42.039Z,18.69
2017-05-06T13:13:43.421Z,18.65
2017-05-06T13:15:04.913Z,18.70
2017-05-06T13:16:06.293Z,18.66
2017-05-06T13:17:27.753Z,18.66
2017-05-06T13:18:29.138Z,18.65
2017-05-06T13:19:50.603Z,18.67
2017-05-06T13:20:51.984Z,18.70
2017-05-06T13:22:13.621Z,18.65
2017-05-06T13:23:15.006Z,18.62
2017-05-06T13:24:36.466Z,18.70
2017-05-06T13:25:37.856Z,18.70
2017-05-06T13:26:59.312Z,18.62
2017-05-06T13:28:00.695Z,18.67
2017-05-06T13:29:22.195Z,18.66
2017-05-06T13:30:23.589Z,18.70
2017-05-06T13:31:45.065Z,18.67
2017-05-06T13:32:46.441Z,18.67
2017-05-06T13:34:07.903Z,18.69
2017-05-06T13:35:09.288Z,18.70
2017-05-06T13:36:30.784Z,18.66
2017-05-06T13:37:32.157Z,18.81
2017-05-06T13:38:53.626Z,18.70
2017-05-06T13:39:55.011Z,18.70
2017-05-06T13:41:16.475Z,18.65
2017-05-06T13:42:17.860Z,18.67
2017-05-06T13:43:39.356Z,18.66
2017-05-06T13:44:40.738Z,18.70
2017-05-06T13:46:02.202Z,18.72
2017-05-06T13:47:03.582Z,18.66
2017-05-06T13:48:25.046Z,18.72
2017-05-06T13:49:26.600Z,18.72
2017-05-06T13:50:48.095Z,18.65
2017-05-06T13:51:49.476Z,18.66
2017-05-06T13:53:10.936Z,18.62
2017-05-06T13:54:12.322Z,18.63
2017-05-06T13:55:33.789Z,18.66
2017-05-06T13:56:35.184Z,18.63
2017-05-06T13:57:56.680Z,18.70
2017-05-06T13:58:58.062Z,18.75
2017-05-06T14:00:19.523Z,18.72
2017-05-06T14:01:20.906Z,18.66
2017-05-06T14:02:42.396Z,18.73
2017-05-06T14:03:43.777Z,18.78
2017-05-06T14:05:05.284Z,18.70
2017-05-06T14:06:06.681Z,18.76
2017-05-06T14:07:28.132Z,18.78
2017-05-06T14:08:29.516Z,18.70
2017-05-06T14:09:50.983Z,18.75
2017-05-06T14:10:52.365Z,18.78
2017-05-06T14:12:13.904Z,18.73
2017-05-06T14:13:15.289Z,18.75
2017-05-06T14:14:36.748Z,18.78
2017-05-06T14:15:38.130Z,18.76
2017-05-06T14:16:59.593Z,18.78
2017-05-06T14:18:01.013Z,18.78
2017-05-06T14:19:22.506Z,18.70
2017-05-06T14:20:23.887Z,18.70
2017-05-06T14:21:45.350Z,18.87
2017-05-06T14:22:46.734Z,18.81
2017-05-06T14:24:08.197Z,18.82
2017-05-06T14:25:09.580Z,18.85
2017-05-06T14:26:31.085Z,18.88
2017-05-06T14:27:32.449Z,18.82
2017-05-06T14:28:53.908Z,18.82
2017-05-06T14:29:55.295Z,18.88
2017-05-06T14:31:16.753Z,18.94
2017-05-06T14:32:18.136Z,18.90
2017-05-06T14:33:39.639Z,18.75
2017-05-06T14:34:41.023Z,18.91
2017-05-06T14:36:02.481Z,18.87
2017-05-06T14:37:03.865Z,19.02
2017-05-06T14:38:25.326Z,19.13
2017-05-06T14:39:26.709Z,19.11
2017-05-06T14:40:48.200Z,19.07
2017-05-06T14:41:49.580Z,19.08
2017-05-06T14:43:11.044Z,18.95
2017-05-06T14:44:12.427Z,18.95
2017-05-06T14:45:33.892Z,18.94
2017-05-06T14:46:35.274Z,18.99
2017-05-06T14:47:56.787Z,18.92
2017-05-06T14:48:58.176Z,18.95
2017-05-06T14:50:19.636Z,19.00
2017-05-06T14:51:21.031Z,19.00
2017-05-06T14:52:42.492Z,19.06
2017-05-06T14:53:43.877Z,19.21
2017-05-06T14:55:05.366Z,19.33
2017-05-06T14:56:06.747Z,19.32
2017-05-06T14:57:28.211Z,19.44
2017-05-06T14:58:29.595Z,19.43
2017-05-06T14:59:51.058Z,19.40
2017-05-06T15:00:52.441Z,19.41
2017-05-06T15:02:13.933Z,19.32
2017-05-06T15:03:15.311Z,19.23
2017-05-06T15:04:36.771Z,19.26
2017-05-06T15:05:38.153Z,19.25
2017-05-06T15:06:59.625Z,19.21
2017-05-06T15:08:01.041Z,19.31
2017-05-06T15:09:22.994Z,19.40
2017-05-06T15:10:24.374Z,19.41
2017-05-06T15:11:45.834Z,19.46
2017-05-06T15:12:47.219Z,19.41
2017-05-06T15:14:08.682Z,19.39
2017-05-06T15:15:10.063Z,19.47
2017-05-06T15:16:31.550Z,19.43
2017-05-06T15:17:32.931Z,19.58
2017-05-06T15:18:54.392Z,19.48
2017-05-06T15:19:55.775Z,19.41
2017-05-06T15:21:17.236Z,19.47
2017-05-06T15:22:18.619Z,19.39
2017-05-06T15:23:40.107Z,19.47
2017-05-06T15:24:41.488Z,19.39
2017-05-06T15:26:02.949Z,19.43
2017-05-06T15:27:04.335Z,19.39
2017-05-06T15:28:25.810Z,19.39
2017-05-06T15:29:27.192Z,19.22
2017-05-06T15:30:48.677Z,19.16
2017-05-06T15:31:50.058Z,19.26
2017-05-06T15:35:26.023Z,-40.00
2017-05-06T15:36:27.554Z,-40.00
2017-05-06T15:37:49.492Z,-40.00
2017-05-06T16:48:31.551Z,19.62
2017-05-06T16:49:33.077Z,19.63
2017-05-06T16:50:54.716Z,19.59
2017-05-06T16:51:56.245Z,19.54
2017-05-06T16:53:17.884Z,19.55
2017-05-06T16:54:19.409Z,19.62
2017-05-06T16:55:41.076Z,19.61
2017-05-06T16:56:42.604Z,19.62
2017-05-06T16:58:04.243Z,19.56
2017-05-06T16:59:05.773Z,19.56
2017-05-06T17:00:27.416Z,19.47
2017-05-06T17:01:28.945Z,19.39
2017-05-06T17:02:50.615Z,19.44
2017-05-06T17:03:52.143Z,19.43
2017-05-06T17:05:13.784Z,19.54
2017-05-06T17:06:15.312Z,19.54
2017-05-06T17:07:53.036Z,19.48
2017-05-06T17:08:54.568Z,19.39
2017-05-06T17:10:16.220Z,19.44
2017-05-06T18:18:29.813Z,19.55
2017-05-06T18:19:31.381Z,19.54
2017-05-06T18:55:26.348Z,13.81
2017-05-06T18:56:27.914Z,13.77
2017-05-06T18:57:49.624Z,13.48
2017-05-06T18:58:51.185Z,13.33
2017-05-06T19:00:12.888Z,13.25
2017-05-06T19:01:14.462Z,13.14
2017-05-06T19:02:36.692Z,12.97
2017-05-06T19:03:38.264Z,12.96
2017-05-06T19:05:00.504Z,12.89
2017-05-06T19:06:02.055Z,12.95
2017-05-06T19:07:24.491Z,12.89
2017-05-06T19:08:26.134Z,13.00
2017-05-06T19:09:48.490Z,12.97
2017-05-06T19:10:50.166Z,13.01
2017-05-06T19:12:13.589Z,13.10
2017-05-06T19:13:15.187Z,12.95
2017-05-06T19:14:37.463Z,13.01
2017-05-06T19:15:39.087Z,12.97
2017-05-06T19:17:01.459Z,12.96
2017-05-06T19:18:03.127Z,13.00
2017-05-06T19:19:25.432Z,12.92
2017-05-06T19:20:27.029Z,12.95
2017-05-06T19:21:50.327Z,12.90
2017-05-06T19:22:52.085Z,12.82
2017-05-06T19:24:14.508Z,12.85
2017-05-06T19:25:16.207Z,12.74
2017-05-06T19:26:38.780Z,12.77
2017-05-06T19:27:40.427Z,12.82
2017-05-06T19:29:02.778Z,12.77
2017-05-06T19:30:04.446Z,12.78
2017-05-06T19:31:27.834Z,12.79
2017-05-06T19:32:29.488Z,12.74
2017-05-06T19:33:51.795Z,12.78
2017-05-06T19:34:53.464Z,12.77
2017-05-06T19:36:15.790Z,12.71
2017-05-06T19:37:17.505Z,12.70
2017-05-06T19:38:39.946Z,12.70
2017-05-06T19:39:41.536Z,12.70
2017-05-06T19:41:04.903Z,12.62
2017-05-06T19:42:06.507Z,12.62
2017-05-06T19:43:28.816Z,12.60
2017-05-06T19:44:30.390Z,12.64
2017-05-06T19:45:52.797Z,12.64
2017-05-06T19:46:54.401Z,12.54
2017-05-06T19:48:16.748Z,12.64
2017-05-06T19:49:18.613Z,12.64
2017-05-06T19:50:41.924Z,12.60
2017-05-06T19:51:43.633Z,12.54
2017-05-06T19:53:07.162Z,12.49
2017-05-06T19:54:08.803Z,12.42
2017-05-06T19:55:32.789Z,12.45
2017-05-06T19:56:34.393Z,12.34
2017-05-06T19:57:56.843Z,12.31
2017-05-06T19:58:58.645Z,12.32
2017-05-06T20:00:21.305Z,12.34
2017-05-06T20:01:23.060Z,12.37
2017-05-06T20:02:45.344Z,12.32
2017-05-06T20:03:47.127Z,12.32
2017-05-06T20:05:10.480Z,12.37
2017-05-06T20:06:12.226Z,12.34
2017-05-06T20:07:35.529Z,12.29
2017-05-06T20:08:37.272Z,12.21
2017-05-06T20:09:59.761Z,12.14
2017-05-06T20:11:01.547Z,12.16
2017-05-06T20:12:23.896Z,12.14
2017-05-06T20:13:25.438Z,12.21
2017-05-06T20:14:47.185Z,12.19
2017-05-06T20:15:48.749Z,12.27
2017-05-06T20:17:10.951Z,12.28
2017-05-06T20:18:12.516Z,12.32
2017-05-06T20:19:34.225Z,12.19
2017-05-06T20:20:35.788Z,12.28
2017-05-06T20:21:57.562Z,12.29
2017-05-06T20:22:59.094Z,12.23
2017-05-06T20:24:21.298Z,12.27
2017-05-06T20:25:23.015Z,12.16
2017-05-06T20:26:45.272Z,12.07
2017-05-06T20:27:46.834Z,12.17
2017-05-06T20:29:08.571Z,12.12
2017-05-06T20:30:10.138Z,12.02
2017-05-06T20:31:31.852Z,12.09
2017-05-06T20:32:33.421Z,12.09
2017-05-06T20:33:55.643Z,11.98
2017-05-06T20:34:57.203Z,12.04
2017-05-06T20:36:19.504Z,11.88
2017-05-06T20:37:21.065Z,11.91
2017-05-06T20:38:43.282Z,11.99
2017-05-06T20:39:44.838Z,11.80
2017-05-06T20:41:07.056Z,11.90
2017-05-06T20:42:08.616Z,11.72
2017-05-06T20:43:30.858Z,11.78
2017-05-06T20:44:32.428Z,11.73
2017-05-06T20:45:54.140Z,11.72
2017-05-06T20:46:55.708Z,11.69
2017-05-06T20:48:17.927Z,11.60
2017-05-06T20:49:19.498Z,11.69
2017-05-06T20:50:41.725Z,11.62
2017-05-06T20:51:43.291Z,11.54
2017-05-06T20:53:05.499Z,11.44
2017-05-06T20:54:07.065Z,11.40
2017-05-06T20:55:29.281Z,11.39
2017-05-06T20:56:30.854Z,11.40
2017-05-06T20:57:53.087Z,11.40
2017-05-06T20:58:54.655Z,11.39
2017-05-06T21:00:16.861Z,11.52
2017-05-06T21:01:18.439Z,11.49
2017-05-06T21:02:40.637Z,11.42
2017-05-06T21:03:42.196Z,11.46